createdAt,value
2019-05-20T00:00:18.047Z,26.93
2019-05-20T00:02:47.532Z,24.63
2019-05-20T00:05:17.081Z,27.27
2019-05-20T00:07:46.564Z,26.07
2019-05-20T00:10:16.076Z,26.70
2019-05-20T00:12:45.573Z,30.17
2019-05-20T00:15:15.177Z,28.12
2019-05-20T00:17:44.705Z,28.07
2019-05-20T00:20:14.292Z,31.35
2019-05-20T00:22:43.816Z,33.98
2019-05-20T00:25:13.406Z,29.95
2019-05-20T00:27:42.917Z,30.00
2019-05-20T00:30:12.866Z,28.65
2019-05-20T00:32:42.677Z,28.65
2019-05-20T00:35:12.253Z,23.37
2019-05-20T00:37:42.733Z,24.30
2019-05-20T00:40:12.364Z,27.15
2019-05-20T00:42:41.854Z,27.10
2019-05-20T00:45:11.778Z,29.60
2019-05-20T00:47:41.294Z,25.17
2019-05-20T00:50:10.897Z,26.10
2019-05-20T00:52:40.480Z,27.93
2019-05-20T00:55:26.825Z,26.57
2019-05-20T00:57:56.352Z,24.63
2019-05-20T01:00:25.943Z,27.53
2019-05-20T01:02:57.303Z,27.58
2019-05-20T01:05:26.694Z,29.25
2019-05-20T01:07:56.195Z,28.30
2019-05-20T01:10:25.721Z,29.50
2019-05-20T01:12:56.200Z,27.80
2019-05-20T01:15:26.401Z,24.25
2019-05-20T01:17:55.922Z,28.20
2019-05-20T01:20:25.477Z,28.40
2019-05-20T01:22:54.956Z,34.67
2019-05-20T01:25:25.451Z,33.55
2019-05-20T01:27:54.966Z,31.07
2019-05-20T01:30:24.935Z,33.08
2019-05-20T01:32:54.458Z,33.13
2019-05-20T01:35:23.956Z,28.87
2019-05-20T01:37:53.485Z,31.73
2019-05-20T01:40:22.992Z,32.20
2019-05-20T01:42:52.524Z,28.70
2019-05-20T01:45:22.050Z,27.00
2019-05-20T01:47:51.593Z,29.60
2019-05-20T01:50:21.093Z,28.15
2019-05-20T01:52:50.602Z,26.23
2019-05-20T01:55:20.145Z,28.62
2019-05-20T01:57:49.663Z,30.40
2019-05-20T02:00:19.447Z,31.15
2019-05-20T02:02:48.957Z,31.93
2019-05-20T02:05:18.567Z,29.63
2019-05-20T02:07:48.074Z,31.40
2019-05-20T02:10:17.595Z,33.95
2019-05-20T02:12:47.101Z,30.95
2019-05-20T02:15:40.557Z,33.35
2019-05-20T02:18:10.105Z,32.65
2019-05-20T02:20:39.639Z,36.68
2019-05-20T02:23:15.734Z,30.48
2019-05-20T02:25:49.698Z,30.10
2019-05-20T02:28:20.215Z,27.90
2019-05-20T02:30:49.744Z,24.87
2019-05-20T02:33:19.253Z,28.42
2019-05-20T02:35:48.772Z,28.12
2019-05-20T02:38:18.299Z,28.15
2019-05-20T02:40:47.811Z,29.05
2019-05-20T02:43:17.423Z,25.13
2019-05-20T02:45:46.949Z,27.62
2019-05-20T02:48:16.534Z,24.80
2019-05-20T02:50:46.048Z,27.60
2019-05-20T02:53:15.563Z,30.90
2019-05-20T02:55:45.092Z,30.00
2019-05-20T02:58:14.611Z,30.12
2019-05-20T03:00:44.182Z,28.60
2019-05-20T03:03:14.246Z,28.50
2019-05-20T03:05:43.922Z,22.13
2019-05-20T03:08:13.451Z,23.50
2019-05-20T03:10:42.962Z,28.23
2019-05-20T03:13:12.473Z,31.60
2019-05-20T03:15:41.973Z,27.33
2019-05-20T03:18:11.503Z,24.82
2019-05-20T03:20:41.007Z,23.47
2019-05-20T03:23:10.532Z,22.30
2019-05-20T03:25:40.073Z,22.13
2019-05-20T03:28:09.876Z,25.77
2019-05-20T03:30:39.455Z,25.72
2019-05-20T03:33:09.091Z,26.48
2019-05-20T03:35:39.607Z,24.47
2019-05-20T03:38:10.170Z,28.00
2019-05-20T03:40:39.706Z,29.43
2019-05-20T03:43:09.219Z,28.30
2019-05-20T03:45:38.753Z,30.90
2019-05-20T03:48:08.283Z,35.50
2019-05-20T03:50:37.820Z,37.08
2019-05-20T03:53:07.337Z,35.73
2019-05-20T03:55:36.842Z,33.20
2019-05-20T03:58:06.365Z,31.30
2019-05-20T04:00:44.447Z,28.50
2019-05-20T04:03:14.794Z,25.80
2019-05-20T04:05:44.523Z,27.87
2019-05-20T04:08:14.041Z,32.13
2019-05-20T04:10:43.543Z,27.80
2019-05-20T04:13:13.063Z,27.85
2019-05-20T04:15:42.580Z,30.45
2019-05-20T04:18:12.312Z,29.73
2019-05-20T04:20:41.837Z,32.27
2019-05-20T04:23:11.383Z,36.00
2019-05-20T04:25:40.880Z,42.13
2019-05-20T04:28:10.405Z,45.30
2019-05-20T04:30:39.955Z,52.27
2019-05-20T04:33:09.465Z,56.70
2019-05-20T04:35:39.997Z,61.13
2019-05-20T04:38:09.518Z,63.13
2019-05-20T04:40:39.026Z,62.55
2019-05-20T04:43:08.554Z,62.30
2019-05-20T04:45:38.091Z,70.77
2019-05-20T04:48:07.620Z,64.53
2019-05-20T04:50:37.124Z,79.70
2019-05-20T04:53:06.625Z,64.87
2019-05-20T04:55:36.147Z,74.47
2019-05-20T04:58:05.658Z,62.15
2019-05-20T05:00:53.642Z,72.65
2019-05-20T05:03:23.785Z,60.70
2019-05-20T05:05:53.288Z,82.90
2019-05-20T05:08:23.087Z,64.07
2019-05-20T05:10:52.694Z,62.93
2019-05-20T05:13:22.782Z,64.20
2019-05-20T05:15:52.307Z,57.10
2019-05-20T05:18:22.189Z,71.30
2019-05-20T05:20:51.764Z,73.87
2019-05-20T05:23:21.690Z,69.17
2019-05-20T05:25:51.191Z,78.13
2019-05-20T05:28:20.789Z,68.67
2019-05-20T05:30:50.376Z,70.35
2019-05-20T05:33:19.913Z,68.25
2019-05-20T05:35:53.123Z,86.47
2019-05-20T05:38:20.918Z,70.37
2019-05-20T05:40:50.430Z,70.33
2019-05-20T05:43:19.944Z,98.82
2019-05-20T05:45:49.464Z,89.67
2019-05-20T05:48:18.960Z,86.80
2019-05-20T05:50:48.474Z,96.28
2019-05-20T05:53:17.981Z,96.73
2019-05-20T05:55:47.481Z,84.52
2019-05-20T05:58:16.978Z,82.55
2019-05-20T06:00:46.482Z,84.57
2019-05-20T06:03:15.992Z,74.03
2019-05-20T06:05:45.500Z,73.47
2019-05-20T06:08:15.993Z,71.13
2019-05-20T06:10:45.492Z,78.97
2019-05-20T06:13:15.073Z,78.80
2019-05-20T06:15:44.560Z,79.80
2019-05-20T06:18:14.137Z,84.72
2019-05-20T06:20:43.647Z,80.05
2019-05-20T06:23:13.177Z,74.27
2019-05-20T06:25:42.681Z,75.63
2019-05-20T06:28:12.210Z,80.03
2019-05-20T06:30:43.921Z,94.70
2019-05-20T06:33:13.532Z,72.97
2019-05-20T06:35:43.324Z,75.65
2019-05-20T06:38:34.884Z,83.60
2019-05-20T06:41:04.983Z,83.40
2019-05-20T06:43:34.510Z,82.78
2019-05-20T06:46:04.111Z,77.87
2019-05-20T06:48:33.607Z,78.83
2019-05-20T06:51:03.118Z,86.83
2019-05-20T06:53:32.617Z,86.90
2019-05-20T06:56:02.131Z,82.07
2019-05-20T06:58:31.640Z,80.40
2019-05-20T07:01:01.137Z,84.20
2019-05-20T07:03:30.644Z,82.17
2019-05-20T07:06:00.229Z,87.10
2019-05-20T07:08:29.743Z,86.93
2019-05-20T07:10:59.283Z,80.95
2019-05-20T07:13:29.098Z,85.77
2019-05-20T07:15:58.635Z,84.03
2019-05-20T07:18:28.125Z,87.42
2019-05-20T07:20:57.643Z,82.97
2019-05-20T07:23:27.154Z,84.57
2019-05-20T07:25:56.652Z,79.93
2019-05-20T07:28:26.148Z,83.10
2019-05-20T07:30:55.703Z,82.22
2019-05-20T07:33:25.201Z,77.40
2019-05-20T07:35:54.755Z,68.07
2019-05-20T07:38:24.357Z,66.20
2019-05-20T07:40:53.868Z,62.97
2019-05-20T07:43:23.377Z,70.00
2019-05-20T07:45:52.972Z,72.30
2019-05-20T07:48:22.595Z,74.47
2019-05-20T07:50:52.626Z,72.85
2019-05-20T07:53:22.293Z,76.50
2019-05-20T07:55:59.952Z,80.57
2019-05-20T07:58:33.634Z,74.60
2019-05-20T08:01:02.080Z,80.72
2019-05-20T08:03:31.673Z,82.02
2019-05-20T08:06:01.180Z,75.25
2019-05-20T08:08:30.710Z,79.90
2019-05-20T08:11:00.256Z,74.72
2019-05-20T08:13:29.839Z,73.70
2019-05-20T08:16:00.322Z,72.40
2019-05-20T08:18:29.896Z,75.55
2019-05-20T08:20:59.548Z,69.63
2019-05-20T08:23:29.121Z,66.63
2019-05-20T08:25:58.790Z,63.70
2019-05-20T08:28:28.317Z,63.28
2019-05-20T08:30:58.050Z,65.70
2019-05-20T08:33:27.666Z,62.00
2019-05-20T08:35:57.242Z,59.07
2019-05-20T08:38:26.748Z,58.27
2019-05-20T08:40:56.338Z,57.77
2019-05-20T08:43:25.896Z,58.20
2019-05-20T08:45:55.510Z,59.63
2019-05-20T08:48:26.747Z,61.23
2019-05-20T08:50:56.270Z,59.20
2019-05-20T08:53:26.868Z,68.06
2019-05-20T08:55:56.426Z,62.35
2019-05-20T08:58:25.966Z,64.92
2019-05-20T09:00:55.643Z,64.63
2019-05-20T09:03:30.348Z,69.40
2019-05-20T09:05:56.674Z,68.03
2019-05-20T09:08:26.219Z,64.50
2019-05-20T09:10:55.768Z,74.00
2019-05-20T09:13:27.205Z,72.70
2019-05-20T09:15:56.766Z,74.53
2019-05-20T09:18:26.301Z,75.70
2019-05-20T09:20:57.530Z,74.15
2019-05-20T09:23:27.102Z,70.65
2019-05-20T09:25:56.634Z,74.87
2019-05-20T09:28:26.384Z,81.80
2019-05-20T09:30:56.100Z,85.15
2019-05-20T09:33:25.896Z,79.17
2019-05-20T09:35:57.864Z,86.32
2019-05-20T09:38:27.621Z,89.80
2019-05-20T09:40:57.107Z,99.13
2019-05-20T09:43:26.625Z,89.03
2019-05-20T09:46:07.835Z,85.35
2019-05-20T09:48:30.766Z,90.50
2019-05-20T09:51:00.317Z,90.45
2019-05-20T09:53:29.831Z,93.20
2019-05-20T09:55:59.337Z,87.40
2019-05-20T09:58:28.858Z,86.50
2019-05-20T10:00:58.438Z,92.55
2019-05-20T10:03:27.956Z,88.10
2019-05-20T10:05:57.459Z,92.03
2019-05-20T10:08:37.665Z,96.43
2019-05-20T10:10:59.812Z,90.40
2019-05-20T10:13:29.464Z,95.80
2019-05-20T10:15:59.019Z,91.57
2019-05-20T10:18:37.408Z,87.40
2019-05-20T10:20:59.823Z,84.30
2019-05-20T10:23:29.378Z,79.92
2019-05-20T10:25:58.967Z,82.20
2019-05-20T10:28:28.543Z,80.20
2019-05-20T10:30:58.076Z,80.37
2019-05-20T10:33:26.639Z,68.62
2019-05-20T10:35:55.937Z,68.40
2019-05-20T10:38:26.517Z,67.90
2019-05-20T10:40:56.143Z,71.20
2019-05-20T10:43:25.749Z,64.97
2019-05-20T10:45:55.292Z,65.22
2019-05-20T10:48:24.880Z,65.40
2019-05-20T10:50:57.980Z,66.30
2019-05-20T10:53:28.434Z,63.00
2019-05-20T10:55:58.815Z,61.90
2019-05-20T10:58:28.542Z,61.05
2019-05-20T11:01:03.531Z,61.02
2019-05-20T11:03:29.442Z,59.27
2019-05-20T11:05:58.990Z,54.55
2019-05-20T11:08:28.540Z,56.33
2019-05-20T11:10:58.077Z,61.13
2019-05-20T11:13:27.677Z,56.20
2019-05-20T11:15:57.267Z,57.83
2019-05-20T11:18:26.781Z,56.45
2019-05-20T11:20:56.791Z,48.97
2019-05-20T11:23:26.407Z,49.20
2019-05-20T11:25:55.945Z,48.80
2019-05-20T11:28:25.466Z,46.27
2019-05-20T11:30:55.027Z,47.73
2019-05-20T11:33:24.571Z,48.87
2019-05-20T11:35:54.158Z,47.60
2019-05-20T11:38:23.675Z,48.98
2019-05-20T11:40:53.179Z,47.75
2019-05-20T11:43:22.736Z,46.10
2019-05-20T11:45:52.282Z,48.33
2019-05-20T11:48:22.831Z,50.15
2019-05-20T11:50:52.524Z,48.48
2019-05-20T11:53:22.157Z,47.80
2019-05-20T11:55:51.848Z,48.70
2019-05-20T11:58:21.341Z,44.17
2019-05-20T12:00:50.900Z,48.33
2019-05-20T12:03:20.454Z,49.65
2019-05-20T12:05:50.060Z,48.27
2019-05-20T12:08:19.780Z,51.88
2019-05-20T12:10:49.301Z,51.40
2019-05-20T12:13:18.827Z,49.23
2019-05-20T12:15:48.347Z,51.33
2019-05-20T12:18:17.894Z,51.20
2019-05-20T12:20:47.394Z,50.97
2019-05-20T12:23:16.917Z,52.15
2019-05-20T12:25:46.489Z,54.90
2019-05-20T12:28:15.965Z,54.20
2019-05-20T12:30:45.484Z,50.98
2019-05-20T12:33:19.092Z,53.53
2019-05-20T12:35:48.322Z,53.95
2019-05-20T12:38:17.877Z,52.10
2019-05-20T12:40:48.258Z,55.20
2019-05-20T12:43:19.152Z,51.33
2019-05-20T12:45:48.669Z,55.30
2019-05-20T12:48:18.241Z,52.27
2019-05-20T12:50:47.753Z,50.92
2019-05-20T12:53:17.535Z,52.60
2019-05-20T12:55:47.080Z,51.92
2019-05-20T12:58:16.811Z,55.03
2019-05-20T13:00:46.352Z,50.20
2019-05-20T13:03:15.877Z,48.95
2019-05-20T13:05:45.397Z,46.00
2019-05-20T13:08:14.937Z,42.75
2019-05-20T13:10:44.432Z,39.45
2019-05-20T13:13:13.956Z,38.00
2019-05-20T13:15:43.482Z,39.70
2019-05-20T13:18:12.995Z,41.97
2019-05-20T13:20:42.620Z,35.60
2019-05-20T13:23:14.231Z,40.73
2019-05-20T13:25:43.465Z,38.83
2019-05-20T13:28:13.009Z,34.65
2019-05-20T13:30:42.558Z,39.10
2019-05-20T13:33:12.078Z,39.03
2019-05-20T13:35:41.639Z,40.67
2019-05-20T13:38:11.197Z,41.07
2019-05-20T13:40:46.303Z,42.97
2019-05-20T13:43:12.006Z,40.55
2019-05-20T13:45:42.519Z,43.10
2019-05-20T13:48:12.019Z,42.62
2019-05-20T13:50:41.544Z,44.15
2019-05-20T13:53:11.085Z,38.17
2019-05-20T13:55:40.608Z,40.83
2019-05-20T13:58:10.128Z,36.93
2019-05-20T14:00:39.650Z,34.30
2019-05-20T14:03:09.236Z,31.95
2019-05-20T14:05:38.797Z,34.00
2019-05-20T14:08:08.459Z,30.37
2019-05-20T14:10:37.951Z,29.20
2019-05-20T14:13:07.559Z,34.33
2019-05-20T14:15:38.158Z,30.43
2019-05-20T14:18:07.727Z,30.32
2019-05-20T14:20:37.256Z,30.10
2019-05-20T14:23:06.765Z,30.12
2019-05-20T14:25:36.303Z,25.57
2019-05-20T14:28:05.824Z,27.23
2019-05-20T14:30:35.399Z,25.37
2019-05-20T14:33:04.959Z,26.43
2019-05-20T14:35:34.471Z,24.63
2019-05-20T14:38:04.000Z,25.68
2019-05-20T14:40:34.120Z,25.43
2019-05-20T14:43:04.607Z,26.45
2019-05-20T14:45:34.171Z,21.80
2019-05-20T14:48:03.793Z,23.33
2019-05-20T14:50:33.440Z,21.47
2019-05-20T14:53:02.970Z,20.67
2019-05-20T14:55:41.810Z,18.60
2019-05-20T14:58:03.773Z,19.77
2019-05-20T15:00:33.370Z,23.90
2019-05-20T15:03:02.897Z,22.80
2019-05-20T15:05:32.469Z,26.17
2019-05-20T15:08:01.970Z,21.03
2019-05-20T15:10:31.497Z,19.87
2019-05-20T15:13:01.002Z,19.70
2019-05-20T15:15:30.806Z,26.42
2019-05-20T15:18:00.320Z,20.77
2019-05-20T15:20:29.896Z,19.20
2019-05-20T15:22:59.399Z,20.03
2019-05-20T15:25:28.935Z,20.97
2019-05-20T15:27:58.464Z,19.48
2019-05-20T15:30:28.000Z,20.95
2019-05-20T15:32:57.524Z,24.17
2019-05-20T15:35:27.040Z,27.25
2019-05-20T15:37:56.662Z,36.17
2019-05-20T15:40:27.137Z,31.16
2019-05-20T15:42:56.659Z,26.68
2019-05-20T15:45:26.210Z,29.32
2019-05-20T15:47:55.719Z,29.77
2019-05-20T15:50:25.278Z,33.13
2019-05-20T15:52:55.041Z,33.40
2019-05-20T15:55:24.594Z,29.27
2019-05-20T15:57:54.132Z,34.53
2019-05-20T16:00:23.766Z,29.70
2019-05-20T16:02:53.322Z,27.20
2019-05-20T16:05:22.871Z,32.10
2019-05-20T16:07:52.396Z,26.93
2019-05-20T16:10:22.823Z,29.23
2019-05-20T16:12:52.349Z,28.32
2019-05-20T16:15:21.960Z,25.43
2019-05-20T16:17:51.513Z,24.57
2019-05-20T16:20:21.155Z,26.95
2019-05-20T16:22:50.713Z,26.68
2019-05-20T16:25:20.307Z,27.25
2019-05-20T16:27:50.120Z,24.80
2019-05-20T16:30:23.461Z,26.03
2019-05-20T16:32:53.016Z,28.30
2019-05-20T16:35:22.535Z,26.40
2019-05-20T16:37:53.686Z,27.77
2019-05-20T16:40:23.264Z,28.97
2019-05-20T16:42:53.176Z,32.27
2019-05-20T16:45:22.808Z,28.43
2019-05-20T16:47:52.348Z,28.90
2019-05-20T16:50:21.941Z,26.82
2019-05-20T16:52:51.527Z,28.40
2019-05-20T16:55:21.066Z,25.37
2019-05-20T16:57:50.768Z,24.47
2019-05-20T17:00:31.371Z,19.85
2019-05-20T17:02:51.711Z,21.93
2019-05-20T17:05:21.223Z,18.23
2019-05-20T17:07:50.809Z,17.27
2019-05-20T17:10:20.322Z,18.62
2019-05-20T17:12:49.849Z,20.67
2019-05-20T17:15:20.270Z,18.17
2019-05-20T17:17:49.808Z,22.62
2019-05-20T17:20:19.324Z,16.40
2019-05-20T17:22:48.846Z,16.30
2019-05-20T17:25:19.450Z,18.10
2019-05-20T17:27:48.967Z,17.17
2019-05-20T17:30:18.573Z,16.57
2019-05-20T17:32:48.091Z,14.85
2019-05-20T17:35:17.766Z,19.55
2019-05-20T17:37:47.312Z,21.10
2019-05-20T17:40:19.272Z,21.40
2019-05-20T17:42:48.887Z,21.82
2019-05-20T17:45:20.517Z,22.00
2019-05-20T17:47:50.727Z,28.00
2019-05-20T17:50:20.519Z,25.08
2019-05-20T17:52:50.277Z,31.15
2019-05-20T17:55:19.986Z,32.42
2019-05-20T17:57:49.496Z,30.93
2019-05-20T18:00:25.209Z,37.77
2019-05-20T18:02:58.740Z,35.63
2019-05-20T18:05:33.089Z,36.77
2019-05-20T18:08:06.473Z,39.80
2019-05-20T18:10:39.060Z,41.03
2019-05-20T18:13:08.603Z,41.20
2019-05-20T18:15:38.114Z,42.53
2019-05-20T18:18:09.671Z,46.80
2019-05-20T18:20:39.287Z,44.77
2019-05-20T18:23:08.816Z,41.30
2019-05-20T18:25:38.406Z,39.00
2019-05-20T18:28:07.980Z,44.73
2019-05-20T18:30:37.631Z,49.53
2019-05-20T18:33:07.246Z,44.03
2019-05-20T18:35:36.751Z,45.17
2019-05-20T18:38:06.256Z,44.27
2019-05-20T18:40:36.117Z,49.50
2019-05-20T18:43:05.685Z,51.17
2019-05-20T18:45:35.218Z,54.93
2019-05-20T18:48:04.814Z,54.83
2019-05-20T18:50:34.355Z,55.50
2019-05-20T18:53:03.920Z,51.55
2019-05-20T18:55:34.992Z,52.20
2019-05-20T18:58:04.731Z,57.83
2019-05-20T19:00:34.276Z,48.98
2019-05-20T19:03:03.812Z,55.13
2019-05-20T19:05:33.313Z,50.28
2019-05-20T19:08:02.849Z,46.40
2019-05-20T19:10:32.372Z,49.95
2019-05-20T19:13:01.899Z,54.67
2019-05-20T19:15:31.542Z,48.23
2019-05-20T19:18:01.883Z,46.17
2019-05-20T19:20:32.375Z,32.38
2019-05-20T19:23:01.962Z,38.50
2019-05-20T19:25:37.898Z,41.40
2019-05-20T19:28:02.868Z,44.03
2019-05-20T19:30:32.385Z,54.63
2019-05-20T19:33:01.904Z,52.40
2019-05-20T19:35:31.434Z,52.62
2019-05-20T19:38:01.061Z,54.47
2019-05-20T19:40:30.644Z,53.52
2019-05-20T19:43:00.171Z,46.17
2019-05-20T19:45:29.792Z,44.70
2019-05-20T19:47:59.366Z,41.68
2019-05-20T19:50:28.923Z,46.33
2019-05-20T19:52:58.509Z,46.65
2019-05-20T19:55:28.142Z,34.35
2019-05-20T19:57:58.106Z,32.55
2019-05-20T20:00:29.199Z,28.62
2019-05-20T20:02:58.791Z,32.50
2019-05-20T20:05:28.355Z,41.30
2019-05-20T20:07:58.492Z,35.03
2019-05-20T20:10:28.098Z,41.40
2019-05-20T20:12:57.729Z,53.93
2019-05-20T20:15:27.617Z,56.97
2019-05-20T20:17:57.313Z,56.50
2019-05-20T20:20:26.873Z,61.03
2019-05-20T20:22:56.554Z,56.57
2019-05-20T20:25:26.094Z,58.57
2019-05-20T20:27:58.587Z,56.60
2019-05-20T20:30:28.079Z,54.73
2019-05-20T20:32:57.735Z,59.33
2019-05-20T20:35:37.646Z,60.63
2019-05-20T20:37:58.936Z,59.93
2019-05-20T20:40:28.489Z,55.93
2019-05-20T20:42:58.153Z,54.88
2019-05-20T20:45:28.039Z,62.13
2019-05-20T20:47:57.645Z,71.97
2019-05-20T20:50:27.329Z,66.33
2019-05-20T20:52:56.885Z,61.17
2019-05-20T20:55:26.485Z,60.13
2019-05-20T20:57:56.004Z,59.70
2019-05-20T21:00:25.581Z,60.85
2019-05-20T21:02:55.131Z,61.30
2019-05-20T21:05:25.617Z,64.87
2019-05-20T21:07:55.215Z,63.50
2019-05-20T21:10:24.730Z,66.80
2019-05-20T21:12:54.302Z,68.75
2019-05-20T21:15:23.910Z,67.10
2019-05-20T21:17:53.422Z,74.25
2019-05-20T21:20:23.000Z,72.72
2019-05-20T21:22:52.556Z,64.77
2019-05-20T21:25:25.714Z,68.55
2019-05-20T21:27:55.236Z,64.80
2019-05-20T21:30:24.828Z,65.90
2019-05-20T21:33:08.316Z,62.33
2019-05-20T21:35:25.607Z,63.70
2019-05-20T21:37:55.130Z,72.82
2019-05-20T21:40:24.676Z,65.80
2019-05-20T21:42:54.142Z,69.53
2019-05-20T21:45:23.663Z,63.00
2019-05-20T21:47:53.181Z,67.42
2019-05-20T21:50:22.693Z,70.62
2019-05-20T21:52:52.195Z,69.13
2019-05-20T21:55:22.398Z,76.82
2019-05-20T21:57:51.906Z,69.03
2019-05-20T22:00:27.499Z,64.50
2019-05-20T22:02:58.570Z,64.65
2019-05-20T22:05:28.089Z,75.67
2019-05-20T22:07:57.670Z,71.67
2019-05-20T22:10:27.167Z,70.40
2019-05-20T22:12:56.668Z,67.78
2019-05-20T22:15:26.175Z,68.33
2019-05-20T22:17:55.699Z,70.20
2019-05-20T22:20:25.200Z,77.37
2019-05-20T22:23:12.780Z,78.80
2019-05-20T22:25:42.367Z,79.05
2019-05-20T22:28:12.957Z,79.35
2019-05-20T22:30:42.678Z,76.02
2019-05-20T22:33:12.236Z,77.45
2019-05-20T22:35:41.738Z,71.90
2019-05-20T22:38:11.363Z,80.83
2019-05-20T22:40:40.882Z,72.22
2019-05-20T22:43:10.380Z,78.67
2019-05-20T22:45:39.901Z,74.50
2019-05-20T22:48:09.397Z,74.62
2019-05-20T22:50:38.902Z,79.03
2019-05-20T22:53:08.503Z,78.15
2019-05-20T22:55:38.001Z,73.72
2019-05-20T22:58:07.513Z,69.40
2019-05-20T23:00:37.037Z,73.85
2019-05-20T23:03:06.535Z,74.00
2019-05-20T23:05:36.047Z,71.70
2019-05-20T23:08:05.565Z,71.22
2019-05-20T23:10:35.078Z,74.20
2019-05-20T23:13:04.571Z,79.63
2019-05-20T23:15:34.081Z,69.47
2019-05-20T23:18:03.573Z,77.95
2019-05-20T23:20:33.089Z,79.10
2019-05-20T23:23:02.599Z,75.12
2019-05-20T23:25:32.481Z,80.97
2019-05-20T23:28:02.974Z,78.75
2019-05-20T23:30:32.499Z,80.65
2019-05-20T23:33:02.005Z,77.85
2019-05-20T23:35:31.510Z,77.12
2019-05-20T23:38:01.014Z,75.62
2019-05-20T23:40:30.542Z,88.17
2019-05-20T23:43:00.030Z,75.17
2019-05-20T23:45:29.549Z,76.57
2019-05-20T23:47:59.057Z,74.80
2019-05-20T23:50:28.557Z,77.50
2019-05-20T23:52:58.063Z,74.90
2019-05-20T23:55:27.561Z,74.05
2019-05-20T23:57:57.060Z,70.62
